Beatriz B — ECNF — position and weather

sailwx.info

Track history (hours):
 
Tides and Currents Weather Stations Pressure Air Temp Water Temp Dewpoint Dewpoint Depression Visibility Wind Speed Wind Dir Waves Ship Positions

Beatriz B

Last reported at 2017-Nov-05 22:00 UTC. Time now 2017-Nov-21 10:20 UTC.
Position N 31°52' W 080°37'.
Warning: this ship's position is 15 days out of date.

Length 159 m; draft 6.2 m.

Type: Cargo ship. MMSI: 224584000.

Date/timePositionNaut miles runAvg speedWind from/ knotsBaromVisibWave heightAir tempDewpointWater temp
2017-Nov-05 22:00N 31°52' W 080°37'105 6.3
2017-Nov-05 05:27N 30°21' W 081°37'0 0.0
2017-Nov-05 00:45N 30°21' W 081°37'  
2017-Oct-30 04:13N 40°32' W 009°43'313.4
2017-Oct-30 04:00N 40°30' W 009°44'713.1
2017-Oct-30 03:30N 40°24' W 009°49'612.9
2017-Oct-30 03:00N 40°18' W 009°52'612.9
2017-Oct-30 02:30N 40°12' W 009°54'612.8
2017-Oct-30 02:00N 40°06' W 009°57'612.9
2017-Oct-30 01:30N 39°60' W 009°59'613.1
2017-Oct-30 01:00N 39°54' W 010°02'713.2
2017-Oct-30 00:30N 39°47' W 010°05'713.5
2017-Oct-30 00:00N 39°41' W 010°08'713.5
2017-Oct-29 23:30N 39°36' W 010°13'713.3
2017-Oct-29 23:00N 39°29' W 010°16'713.5
2017-Oct-29 22:30N 39°23' W 010°19'613.1
2017-Oct-29 22:00N 39°17' W 010°22'713.0
2017-Oct-29 21:30N 39°11' W 010°25'612.9
2017-Oct-29 21:00N 39°05' W 010°28'713.0
2017-Oct-29 20:30N 38°59' W 010°31'713.3
2017-Oct-29 20:00N 38°52' W 010°34'713.5
2017-Oct-29 19:30N 38°46' W 010°37'713.5
2017-Oct-29 19:00N 38°40' W 010°39'713.9
2017-Oct-29 18:31N 38°33' W 010°42'714.1
2017-Oct-29 18:00N 38°26' W 010°45'713.8
2017-Oct-29 17:31N 38°20' W 010°49'713.8
2017-Oct-29 17:00N 38°14' W 010°52'713.6
2017-Oct-29 16:30N 38°07' W 010°55'713.5
2017-Oct-29 16:00N 38°01' W 010°59'713.5
2017-Oct-29 15:30N 37°55' W 011°02'713.5
2017-Oct-29 15:00N 37°49' W 011°05'713.6
2017-Oct-29 14:30N 37°42' W 011°08'713.4
2017-Oct-29 14:01N 37°36' W 011°11'714.0
2017-Oct-29 13:30N 37°29' W 011°14'713.9
2017-Oct-29 13:00N 37°23' W 011°17'714.1
2017-Oct-29 12:30N 37°16' W 011°20'714.0
2017-Oct-29 12:00N 37°09' W 011°22'714.0
2017-Oct-29 11:30N 37°03' W 011°25'713.9
2017-Oct-29 11:00N 36°56' W 011°28'714.1
2017-Oct-29 10:30N 36°50' W 011°31'714.2
2017-Oct-29 10:00N 36°43' W 011°34'714.2
2017-Oct-29 09:30N 36°36' W 011°37'713.5
2017-Oct-29 09:00N 36°30' W 011°40'713.6
2017-Oct-29 08:30N 36°24' W 011°43'713.7
2017-Oct-29 08:00N 36°17' W 011°46'713.7
2017-Oct-29 07:31N 36°11' W 011°49'714.1
2017-Oct-29 07:01N 36°04' W 011°52'714.3
2017-Oct-29 06:30N 35°58' W 011°56'814.0
2017-Oct-29 05:58N 35°51' W 011°59'614.0
2017-Oct-29 05:30N 35°45' W 012°02'713.9
2017-Oct-29 04:59N 35°38' W 012°06'813.8
2017-Oct-29 04:24N 35°30' W 012°09'513.9
2017-Oct-29 04:00N 35°25' W 012°11'19513.8
2017-Oct-28 13:50N 32°23' W 013°34'413.8
2017-Oct-28 13:30N 32°19' W 013°36'713.7
2017-Oct-28 13:00N 32°12' W 013°38'713.7
2017-Oct-28 12:30N 32°05' W 013°40'713.8
2017-Oct-28 12:00N 31°59' W 013°43'1413.8
2017-Oct-28 11:00N 31°46' W 013°49'714.1
2017-Oct-28 10:30N 31°40' W 013°52'714.1
2017-Oct-28 10:00N 31°33' W 013°55'713.7
2017-Oct-28 09:30N 31°27' W 013°58'713.7
2017-Oct-28 09:00N 31°20' W 014°01'713.6
2017-Oct-28 08:30N 31°14' W 014°04'713.7
2017-Oct-28 08:00N 31°07' W 014°07'713.8
2017-Oct-28 07:29N 31°01' W 014°10'613.7
2017-Oct-28 07:00N 30°55' W 014°13'713.7
2017-Oct-28 06:27N 30°48' W 014°16'613.6
2017-Oct-28 06:00N 30°42' W 014°19'713.8
2017-Oct-28 05:30N 30°36' W 014°21'713.9
2017-Oct-28 05:00N 30°29' W 014°24'713.9
2017-Oct-28 04:30N 30°22' W 014°26'713.7
2017-Oct-28 04:00N 30°16' W 014°29'713.4
2017-Oct-28 03:30N 30°10' W 014°31'713.2
2017-Oct-28 03:00N 30°03' W 014°34'713.2
2017-Oct-28 02:31N 29°57' W 014°36'713.1
2017-Oct-28 02:00N 29°51' W 014°38'713.1
2017-Oct-28 01:30N 29°45' W 014°41'713.1
2017-Oct-28 01:00N 29°38' W 014°43'713.0
2017-Oct-28 00:30N 29°32' W 014°46'613.2
2017-Oct-28 00:01N 29°26' W 014°48'713.3
2017-Oct-27 23:31N 29°20' W 014°51'713.2
2017-Oct-27 23:00N 29°14' W 014°54'713.3
2017-Oct-27 22:30N 29°07' W 014°56'713.4
2017-Oct-27 22:00N 29°01' W 014°59'713.5
2017-Oct-27 21:30N 28°55' W 015°02'713.5
2017-Oct-27 21:00N 28°48' W 015°04'713.5
2017-Oct-27 20:30N 28°42' W 015°07'713.5
2017-Oct-27 20:00N 28°36' W 015°09'713.8
2017-Oct-27 19:30N 28°29' W 015°12'714.0
2017-Oct-27 19:00N 28°23' W 015°15'714.2
2017-Oct-27 18:30N 28°16' W 015°17'713.7
2017-Oct-27 18:00N 28°10' W 015°20'2 4.4
2017-Oct-27 17:30N 28°08' W 015°21'2 3.1
2017-Oct-27 17:00N 28°09' W 015°21'2 4.7
2017-Oct-27 16:30N 28°07' W 015°19'2 4.6
2017-Oct-27 16:00N 28°05' W 015°19'1 1.9
2017-Oct-27 15:30N 28°05' W 015°20'4 7.4
2017-Oct-27 15:01N 28°07' W 015°24'2 4.0
2017-Oct-27 14:29N 28°09' W 015°25'0 0.0
2017-Oct-27 13:59N 28°09' W 015°25'0 0.0
2017-Oct-27 13:29N 28°09' W 015°25'0 0.0
2017-Oct-27 12:50N 28°09' W 015°25'0 0.0
2017-Oct-27 12:29N 28°09' W 015°25'0 0.0
2017-Oct-27 11:59N 28°09' W 015°25'0 0.0
2017-Oct-27 11:29N 28°09' W 015°25'0 0.0
2017-Oct-27 10:59N 28°09' W 015°25'0 0.0
2017-Oct-27 10:29N 28°09' W 015°25'0 0.0
2017-Oct-27 09:59N 28°09' W 015°25'0 0.0
2017-Oct-27 09:29N 28°09' W 015°25'0 0.0
2017-Oct-27 08:59N 28°09' W 015°25'0 0.0
2017-Oct-27 08:20N 28°09' W 015°25'0 0.0
2017-Oct-27 07:59N 28°09' W 015°25'0 0.0
2017-Oct-27 07:29N 28°09' W 015°25'0 0.0
2017-Oct-27 06:59N 28°09' W 015°25'0 0.0
2017-Oct-27 06:29N 28°09' W 015°25'0 0.0
2017-Oct-27 05:59N 28°09' W 015°25'0 0.0
2017-Oct-27 05:20N 28°09' W 015°25'0 0.0
2017-Oct-27 04:50N 28°09' W 015°25'0 0.0
2017-Oct-27 04:28N 28°09' W 015°25'0 0.0
2017-Oct-27 03:58N 28°09' W 015°25'0 0.0
2017-Oct-27 03:28N 28°09' W 015°25'0 0.0
2017-Oct-27 02:58N 28°09' W 015°25'0 0.0
2017-Oct-27 02:28N 28°09' W 015°25'0 0.0
2017-Oct-27 01:46N 28°09' W 015°25'0 0.0
2017-Oct-27 01:28N 28°09' W 015°25'0 0.0
2017-Oct-27 00:58N 28°09' W 015°25'0 0.0
2017-Oct-27 00:28N 28°09' W 015°25'0 0.0
2017-Oct-26 23:58N 28°09' W 015°25'0 0.0
2017-Oct-26 23:28N 28°09' W 015°25'0 0.0
2017-Oct-26 22:58N 28°09' W 015°25'0 0.0
2017-Oct-26 22:28N 28°09' W 015°25'  
Track history (hours):
 
Tides and Currents Weather Stations Pressure Air Temp Water Temp Dewpoint Dewpoint Depression Visibility Wind Speed Wind Dir Waves Ship Positions

Beatriz B

Last reported at 2017-Nov-05 22:00 UTC. Time now 2017-Nov-21 10:20 UTC.
Position N 31°52' W 080°37'.
Warning: this ship's position is 15 days out of date.

Length 159 m; draft 6.2 m.

Type: Cargo ship. MMSI: 224584000.

Date/timePositionNaut miles runAvg speedWind from/ knotsBaromVisibWave heightAir tempDewpointWater temp
2017-Nov-05 22:00N 31°52' W 080°37'105 6.3
2017-Nov-05 05:27N 30°21' W 081°37'0 0.0
2017-Nov-05 00:45N 30°21' W 081°37'  
2017-Oct-30 04:13N 40°32' W 009°43'313.4
2017-Oct-30 04:00N 40°30' W 009°44'713.1
2017-Oct-30 03:30N 40°24' W 009°49'612.9
2017-Oct-30 03:00N 40°18' W 009°52'612.9
2017-Oct-30 02:30N 40°12' W 009°54'612.8
2017-Oct-30 02:00N 40°06' W 009°57'612.9
2017-Oct-30 01:30N 39°60' W 009°59'613.1
2017-Oct-30 01:00N 39°54' W 010°02'713.2
2017-Oct-30 00:30N 39°47' W 010°05'713.5
2017-Oct-30 00:00N 39°41' W 010°08'713.5
2017-Oct-29 23:30N 39°36' W 010°13'713.3
2017-Oct-29 23:00N 39°29' W 010°16'713.5
2017-Oct-29 22:30N 39°23' W 010°19'613.1
2017-Oct-29 22:00N 39°17' W 010°22'713.0
2017-Oct-29 21:30N 39°11' W 010°25'612.9
2017-Oct-29 21:00N 39°05' W 010°28'713.0
2017-Oct-29 20:30N 38°59' W 010°31'713.3
2017-Oct-29 20:00N 38°52' W 010°34'713.5
2017-Oct-29 19:30N 38°46' W 010°37'713.5
2017-Oct-29 19:00N 38°40' W 010°39'713.9
2017-Oct-29 18:31N 38°33' W 010°42'714.1
2017-Oct-29 18:00N 38°26' W 010°45'713.8
2017-Oct-29 17:31N 38°20' W 010°49'713.8
2017-Oct-29 17:00N 38°14' W 010°52'713.6
2017-Oct-29 16:30N 38°07' W 010°55'713.5
2017-Oct-29 16:00N 38°01' W 010°59'713.5
2017-Oct-29 15:30N 37°55' W 011°02'713.5
2017-Oct-29 15:00N 37°49' W 011°05'713.6
2017-Oct-29 14:30N 37°42' W 011°08'713.4
2017-Oct-29 14:01N 37°36' W 011°11'714.0
2017-Oct-29 13:30N 37°29' W 011°14'713.9
2017-Oct-29 13:00N 37°23' W 011°17'714.1
2017-Oct-29 12:30N 37°16' W 011°20'714.0
2017-Oct-29 12:00N 37°09' W 011°22'714.0
2017-Oct-29 11:30N 37°03' W 011°25'713.9
2017-Oct-29 11:00N 36°56' W 011°28'714.1
2017-Oct-29 10:30N 36°50' W 011°31'714.2
2017-Oct-29 10:00N 36°43' W 011°34'714.2
2017-Oct-29 09:30N 36°36' W 011°37'713.5
2017-Oct-29 09:00N 36°30' W 011°40'713.6
2017-Oct-29 08:30N 36°24' W 011°43'713.7
2017-Oct-29 08:00N 36°17' W 011°46'713.7
2017-Oct-29 07:31N 36°11' W 011°49'714.1
2017-Oct-29 07:01N 36°04' W 011°52'714.3
2017-Oct-29 06:30N 35°58' W 011°56'814.0
2017-Oct-29 05:58N 35°51' W 011°59'614.0
2017-Oct-29 05:30N 35°45' W 012°02'713.9
2017-Oct-29 04:59N 35°38' W 012°06'813.8
2017-Oct-29 04:24N 35°30' W 012°09'513.9
2017-Oct-29 04:00N 35°25' W 012°11'19513.8
2017-Oct-28 13:50N 32°23' W 013°34'413.8
2017-Oct-28 13:30N 32°19' W 013°36'713.7
2017-Oct-28 13:00N 32°12' W 013°38'713.7
2017-Oct-28 12:30N 32°05' W 013°40'713.8
2017-Oct-28 12:00N 31°59' W 013°43'1413.8
2017-Oct-28 11:00N 31°46' W 013°49'714.1
2017-Oct-28 10:30N 31°40' W 013°52'714.1
2017-Oct-28 10:00N 31°33' W 013°55'713.7
2017-Oct-28 09:30N 31°27' W 013°58'713.7
2017-Oct-28 09:00N 31°20' W 014°01'713.6
2017-Oct-28 08:30N 31°14' W 014°04'713.7
2017-Oct-28 08:00N 31°07' W 014°07'713.8
2017-Oct-28 07:29N 31°01' W 014°10'613.7
2017-Oct-28 07:00N 30°55' W 014°13'713.7
2017-Oct-28 06:27N 30°48' W 014°16'613.6
2017-Oct-28 06:00N 30°42' W 014°19'713.8
2017-Oct-28 05:30N 30°36' W 014°21'713.9
2017-Oct-28 05:00N 30°29' W 014°24'713.9
2017-Oct-28 04:30N 30°22' W 014°26'713.7
2017-Oct-28 04:00N 30°16' W 014°29'713.4
2017-Oct-28 03:30N 30°10' W 014°31'713.2
2017-Oct-28 03:00N 30°03' W 014°34'713.2
2017-Oct-28 02:31N 29°57' W 014°36'713.1
2017-Oct-28 02:00N 29°51' W 014°38'713.1
2017-Oct-28 01:30N 29°45' W 014°41'713.1
2017-Oct-28 01:00N 29°38' W 014°43'713.0
2017-Oct-28 00:30N 29°32' W 014°46'613.2
2017-Oct-28 00:01N 29°26' W 014°48'713.3
2017-Oct-27 23:31N 29°20' W 014°51'713.2
2017-Oct-27 23:00N 29°14' W 014°54'713.3
2017-Oct-27 22:30N 29°07' W 014°56'713.4
2017-Oct-27 22:00N 29°01' W 014°59'713.5
2017-Oct-27 21:30N 28°55' W 015°02'713.5
2017-Oct-27 21:00N 28°48' W 015°04'713.5
2017-Oct-27 20:30N 28°42' W 015°07'713.5
2017-Oct-27 20:00N 28°36' W 015°09'713.8
2017-Oct-27 19:30N 28°29' W 015°12'714.0
2017-Oct-27 19:00N 28°23' W 015°15'714.2
2017-Oct-27 18:30N 28°16' W 015°17'713.7
2017-Oct-27 18:00N 28°10' W 015°20'2 4.4
2017-Oct-27 17:30N 28°08' W 015°21'2 3.1
2017-Oct-27 17:00N 28°09' W 015°21'2 4.7
2017-Oct-27 16:30N 28°07' W 015°19'2 4.6
2017-Oct-27 16:00N 28°05' W 015°19'1 1.9
2017-Oct-27 15:30N 28°05' W 015°20'4 7.4
2017-Oct-27 15:01N 28°07' W 015°24'2 4.0
2017-Oct-27 14:29N 28°09' W 015°25'0 0.0
2017-Oct-27 13:59N 28°09' W 015°25'0 0.0
2017-Oct-27 13:29N 28°09' W 015°25'0 0.0
2017-Oct-27 12:50N 28°09' W 015°25'0 0.0
2017-Oct-27 12:29N 28°09' W 015°25'0 0.0
2017-Oct-27 11:59N 28°09' W 015°25'0 0.0
2017-Oct-27 11:29N 28°09' W 015°25'0 0.0
2017-Oct-27 10:59N 28°09' W 015°25'0 0.0
2017-Oct-27 10:29N 28°09' W 015°25'0 0.0
2017-Oct-27 09:59N 28°09' W 015°25'0 0.0
2017-Oct-27 09:29N 28°09' W 015°25'0 0.0
2017-Oct-27 08:59N 28°09' W 015°25'0 0.0
2017-Oct-27 08:20N 28°09' W 015°25'0 0.0
2017-Oct-27 07:59N 28°09' W 015°25'0 0.0
2017-Oct-27 07:29N 28°09' W 015°25'0 0.0
2017-Oct-27 06:59N 28°09' W 015°25'0 0.0
2017-Oct-27 06:29N 28°09' W 015°25'0 0.0
2017-Oct-27 05:59N 28°09' W 015°25'0 0.0
2017-Oct-27 05:20N 28°09' W 015°25'0 0.0
2017-Oct-27 04:50N 28°09' W 015°25'0 0.0
2017-Oct-27 04:28N 28°09' W 015°25'0 0.0
2017-Oct-27 03:58N 28°09' W 015°25'0 0.0
2017-Oct-27 03:28N 28°09' W 015°25'0 0.0
2017-Oct-27 02:58N 28°09' W 015°25'0 0.0
2017-Oct-27 02:28N 28°09' W 015°25'0 0.0
2017-Oct-27 01:46N 28°09' W 015°25'0 0.0
2017-Oct-27 01:28N 28°09' W 015°25'0 0.0
2017-Oct-27 00:58N 28°09' W 015°25'0 0.0
2017-Oct-27 00:28N 28°09' W 015°25'0 0.0
2017-Oct-26 23:58N 28°09' W 015°25'0 0.0
2017-Oct-26 23:28N 28°09' W 015°25'0 0.0
2017-Oct-26 22:58N 28°09' W 015°25'0 0.0
2017-Oct-26 22:28N 28°09' W 015°25'  

Dump ship's entire track history